sensor_id;sensor_type;location;lat;lon;timestamp;pressure;altitude;pressure_sealevel;temperature;humidity
45323;BME280;31382;50.200;8.674;2024-01-16T00:03:52;99644.56;;;2.88;62.89
45323;BME280;31382;50.200;8.674;2024-01-16T00:08:53;99651.16;;;2.84;62.77
45323;BME280;31382;50.200;8.674;2024-01-16T00:13:55;99647.94;;;2.80;62.96
45323;BME280;31382;50.200;8.674;2024-01-16T00:18:57;99653.09;;;2.82;62.70
45323;BME280;31382;50.200;8.674;2024-01-16T00:23:59;99652.16;;;2.83;62.84
45323;BME280;31382;50.200;8.674;2024-01-16T00:29:01;99651.16;;;2.84;62.64
45323;BME280;31382;50.200;8.674;2024-01-16T00:34:02;99659.56;;;2.79;62.85
45323;BME280;31382;50.200;8.674;2024-01-16T00:39:05;99664.84;;;2.79;62.83
45323;BME280;31382;50.200;8.674;2024-01-16T00:44:10;99666.25;;;2.83;62.80
45323;BME280;31382;50.200;8.674;2024-01-16T00:49:13;99679.25;;;2.76;63.02
45323;BME280;31382;50.200;8.674;2024-01-16T00:54:17;99673.97;;;2.57;64.11
45323;BME280;31382;50.200;8.674;2024-01-16T00:59:19;99672.59;;;2.53;64.04
45323;BME280;31382;50.200;8.674;2024-01-16T01:04:23;99666.84;;;2.48;63.80
45323;BME280;31382;50.200;8.674;2024-01-16T01:09:24;99660.72;;;2.47;64.06
45323;BME280;31382;50.200;8.674;2024-01-16T01:14:26;99665.34;;;2.35;64.20
45323;BME280;31382;50.200;8.674;2024-01-16T01:19:30;99679.97;;;2.30;64.27
45323;BME280;31382;50.200;8.674;2024-01-16T01:24:32;99682.78;;;2.28;64.28
45323;BME280;31382;50.200;8.674;2024-01-16T01:29:41;99685.84;;;2.24;64.04
45323;BME280;31382;50.200;8.674;2024-01-16T01:34:44;99703.53;;;2.23;64.35
45323;BME280;31382;50.200;8.674;2024-01-16T01:39:45;99712.38;;;2.33;64.15
45323;BME280;31382;50.200;8.674;2024-01-16T01:44:47;99703.72;;;2.41;63.77
45323;BME280;31382;50.200;8.674;2024-01-16T01:49:51;99711.13;;;2.37;64.45
45323;BME280;31382;50.200;8.674;2024-01-16T01:54:53;99724.63;;;2.34;64.07
45323;BME280;31382;50.200;8.674;2024-01-16T01:59:55;99724.22;;;2.49;63.84
45323;BME280;31382;50.200;8.674;2024-01-16T02:04:57;99721.72;;;2.57;64.10
45323;BME280;31382;50.200;8.674;2024-01-16T02:09:59;99724.91;;;2.70;63.88
45323;BME280;31382;50.200;8.674;2024-01-16T02:15:02;99724.91;;;2.70;63.70
45323;BME280;31382;50.200;8.674;2024-01-16T02:20:05;99718.06;;;2.68;63.81
45323;BME280;31382;50.200;8.674;2024-01-16T02:25:09;99731.22;;;2.79;63.69
45323;BME280;31382;50.200;8.674;2024-01-16T02:30:11;99740.13;;;2.78;64.20
45323;BME280;31382;50.200;8.674;2024-01-16T02:35:14;99735.94;;;2.85;63.91
45323;BME280;31382;50.200;8.674;2024-01-16T02:40:17;99737.19;;;2.91;63.91
45323;BME280;31382;50.200;8.674;2024-01-16T02:45:19;99733.16;;;2.96;63.49
45323;BME280;31382;50.200;8.674;2024-01-16T02:50:21;99745.41;;;2.97;63.56
45323;BME280;31382;50.200;8.674;2024-01-16T02:55:23;99740.13;;;2.97;63.73
45323;BME280;31382;50.200;8.674;2024-01-16T03:00:24;99743.59;;;2.98;63.59
45323;BME280;31382;50.200;8.674;2024-01-16T03:05:26;99746.69;;;2.93;64.42
45323;BME280;31382;50.200;8.674;2024-01-16T03:10:28;99750.47;;;2.91;64.04
45323;BME280;31382;50.200;8.674;2024-01-16T03:15:29;99758.31;;;2.92;64.36
45323;BME280;31382;50.200;8.674;2024-01-16T03:20:32;99770.16;;;2.88;64.15
45323;BME280;31382;50.200;8.674;2024-01-16T03:25:35;99753.81;;;2.83;64.96
45323;BME280;31382;50.200;8.674;2024-01-16T03:30:40;99776.72;;;2.84;64.71
45323;BME280;31382;50.200;8.674;2024-01-16T03:35:42;99765.13;;;2.85;64.86
45323;BME280;31382;50.200;8.674;2024-01-16T03:40:44;99779.38;;;2.74;64.36
45323;BME280;31382;50.200;8.674;2024-01-16T03:45:46;99783.03;;;2.73;64.46
45323;BME280;31382;50.200;8.674;2024-01-16T03:50:48;99768.22;;;2.61;64.89
45323;BME280;31382;50.200;8.674;2024-01-16T03:55:50;99774.34;;;2.62;64.31
45323;BME280;31382;50.200;8.674;2024-01-16T04:00:52;99770.88;;;2.61;64.80
45323;BME280;31382;50.200;8.674;2024-01-16T04:05:55;99776.31;;;2.69;64.08
45323;BME280;31382;50.200;8.674;2024-01-16T04:10:56;99774.94;;;2.65;64.42
45323;BME280;31382;50.200;8.674;2024-01-16T04:15:58;99782.06;;;2.65;64.12
45323;BME280;31382;50.200;8.674;2024-01-16T04:21:01;99769.31;;;2.58;64.62
45323;BME280;31382;50.200;8.674;2024-01-16T04:26:02;99774.34;;;2.62;64.40
45323;BME280;31382;50.200;8.674;2024-01-16T04:31:04;99778.28;;;2.67;64.25
45323;BME280;31382;50.200;8.674;2024-01-16T04:36:07;99781.63;;;2.69;63.73
45323;BME280;31382;50.200;8.674;2024-01-16T04:41:11;99772.84;;;2.69;63.68
45323;BME280;31382;50.200;8.674;2024-01-16T04:46:14;99775.31;;;2.70;63.82
45323;BME280;31382;50.200;8.674;2024-01-16T04:51:16;99788.59;;;2.70;63.67
45323;BME280;31382;50.200;8.674;2024-01-16T04:56:18;99789.31;;;2.63;64.08
45323;BME280;31382;50.200;8.674;2024-01-16T05:01:19;99796.81;;;2.48;64.63
45323;BME280;31382;50.200;8.674;2024-01-16T05:06:21;99792.22;;;2.40;64.82
45323;BME280;31382;50.200;8.674;2024-01-16T05:11:23;99788.56;;;2.31;65.21
45323;BME280;31382;50.200;8.674;2024-01-16T05:16:25;99777.78;;;2.23;65.37
45323;BME280;31382;50.200;8.674;2024-01-16T05:21:27;99773.91;;;2.17;65.87
45323;BME280;31382;50.200;8.674;2024-01-16T05:26:28;99761.88;;;2.23;65.76
45323;BME280;31382;50.200;8.674;2024-01-16T05:31:39;99754.63;;;2.15;66.09
45323;BME280;31382;50.200;8.674;2024-01-16T05:36:41;99744.41;;;2.11;66.11
45323;BME280;31382;50.200;8.674;2024-01-16T05:41:43;99747.63;;;2.05;66.27
45323;BME280;31382;50.200;8.674;2024-01-16T05:46:45;99752.63;;;1.98;66.14
45323;BME280;31382;50.200;8.674;2024-01-16T05:51:47;99747.59;;;1.95;66.21
45323;BME280;31382;50.200;8.674;2024-01-16T05:56:48;99747.88;;;1.92;65.64
45323;BME280;31382;50.200;8.674;2024-01-16T06:01:52;99741.00;;;1.79;66.64
45323;BME280;31382;50.200;8.674;2024-01-16T06:06:54;99738.91;;;1.83;66.13
45323;BME280;31382;50.200;8.674;2024-01-16T06:11:56;99736.13;;;1.85;65.80
45323;BME280;31382;50.200;8.674;2024-01-16T06:16:57;99736.56;;;1.80;65.97
45323;BME280;31382;50.200;8.674;2024-01-16T06:21:59;99731.75;;;1.64;66.13
45323;BME280;31382;50.200;8.674;2024-01-16T06:27:04;99728.41;;;1.62;66.41
45323;BME280;31382;50.200;8.674;2024-01-16T06:32:06;99721.13;;;1.54;66.28
45323;BME280;31382;50.200;8.674;2024-01-16T06:37:08;99703.53;;;1.53;65.72
45323;BME280;31382;50.200;8.674;2024-01-16T06:42:10;99710.22;;;1.48;65.40
45323;BME280;31382;50.200;8.674;2024-01-16T06:47:12;99715.34;;;1.39;66.32
45323;BME280;31382;50.200;8.674;2024-01-16T06:52:14;99717.94;;;1.30;66.00
45323;BME280;31382;50.200;8.674;2024-01-16T06:57:16;99711.50;;;1.23;66.14
45323;BME280;31382;50.200;8.674;2024-01-16T07:02:19;99715.81;;;1.24;66.42
45323;BME280;31382;50.200;8.674;2024-01-16T07:07:21;99712.00;;;1.16;66.86
45323;BME280;31382;50.200;8.674;2024-01-16T07:12:22;99719.13;;;1.16;66.41
45323;BME280;31382;50.200;8.674;2024-01-16T07:17:24;99728.88;;;1.15;66.87
45323;BME280;31382;50.200;8.674;2024-01-16T07:22:28;99739.06;;;1.20;66.59
45323;BME280;31382;50.200;8.674;2024-01-16T07:27:30;99738.63;;;1.15;66.23
45323;BME280;31382;50.200;8.674;2024-01-16T07:32:33;99746.41;;;1.16;66.44
45323;BME280;31382;50.200;8.674;2024-01-16T07:37:37;99742.50;;;1.11;66.35
45323;BME280;31382;50.200;8.674;2024-01-16T07:42:41;99752.13;;;1.12;66.22
45323;BME280;31382;50.200;8.674;2024-01-16T07:47:45;99761.75;;;1.13;66.32
45323;BME280;31382;50.200;8.674;2024-01-16T07:52:49;99764.53;;;1.11;66.34
45323;BME280;31382;50.200;8.674;2024-01-16T07:57:50;99771.09;;;1.17;66.74
45323;BME280;31382;50.200;8.674;2024-01-16T08:02:53;99763.94;;;1.29;66.03
45323;BME280;31382;50.200;8.674;2024-01-16T08:07:54;99766.63;;;1.38;65.92
45323;BME280;31382;50.200;8.674;2024-01-16T08:12:56;99758.53;;;1.40;65.79
45323;BME280;31382;50.200;8.674;2024-01-16T08:17:58;99759.03;;;1.55;66.12
45323;BME280;31382;50.200;8.674;2024-01-16T08:23:00;99763.44;;;1.75;65.23
45323;BME280;31382;50.200;8.674;2024-01-16T08:28:03;99772.31;;;1.65;65.73
45323;BME280;31382;50.200;8.674;2024-01-16T08:33:06;99776.13;;;1.72;66.05
45323;BME280;31382;50.200;8.674;2024-01-16T08:38:09;99786.59;;;1.83;65.40
45323;BME280;31382;50.200;8.674;2024-01-16T08:43:13;99785.53;;;1.95;64.85
45323;BME280;31382;50.200;8.674;2024-01-16T08:48:15;99800.88;;;1.92;65.11
45323;BME280;31382;50.200;8.674;2024-01-16T08:53:17;99796.34;;;2.13;64.82
45323;BME280;31382;50.200;8.674;2024-01-16T08:58:19;99784.19;;;2.11;65.38
45323;BME280;31382;50.200;8.674;2024-01-16T09:03:20;99785.47;;;2.16;64.67
45323;BME280;31382;50.200;8.674;2024-01-16T09:08:22;99784.88;;;2.13;64.97
45323;BME280;31382;50.200;8.674;2024-01-16T09:13:24;99783.94;;;2.24;64.70
45323;BME280;31382;50.200;8.674;2024-01-16T09:18:26;99782.16;;;2.34;64.56
45323;BME280;31382;50.200;8.674;2024-01-16T09:23:28;99784.41;;;2.68;64.05
45323;BME280;31382;50.200;8.674;2024-01-16T09:28:30;99777.84;;;2.82;64.08
45323;BME280;31382;50.200;8.674;2024-01-16T09:33:32;99793.63;;;2.93;63.59
45323;BME280;31382;50.200;8.674;2024-01-16T09:38:34;99808.03;;;2.90;63.49
45323;BME280;31382;50.200;8.674;2024-01-16T09:43:36;99803.56;;;2.81;64.12
45323;BME280;31382;50.200;8.674;2024-01-16T09:48:38;99817.25;;;2.76;63.82
45323;BME280;31382;50.200;8.674;2024-01-16T09:53:44;99832.75;;;2.81;63.47
45323;BME280;31382;50.200;8.674;2024-01-16T09:58:48;99833.44;;;2.83;64.00
45323;BME280;31382;50.200;8.674;2024-01-16T10:03:50;99841.84;;;2.78;63.68
45323;BME280;31382;50.200;8.674;2024-01-16T10:08:54;99834.16;;;2.85;63.17
45323;BME280;31382;50.200;8.674;2024-01-16T10:13:58;99829.28;;;2.90;63.56
45323;BME280;31382;50.200;8.674;2024-01-16T10:19:06;99814.75;;;3.04;62.88
45323;BME280;31382;50.200;8.674;2024-01-16T10:24:11;99819.31;;;3.12;63.08
45323;BME280;31382;50.200;8.674;2024-01-16T10:29:14;99805.06;;;3.23;62.72
45323;BME280;31382;50.200;8.674;2024-01-16T10:34:20;99802.28;;;3.24;62.55
45323;BME280;31382;50.200;8.674;2024-01-16T10:39:25;99809.09;;;3.36;62.36
45323;BME280;31382;50.200;8.674;2024-01-16T10:44:53;99799.97;;;3.49;62.13
45323;BME280;31382;50.200;8.674;2024-01-16T10:49:56;99797.00;;;3.62;61.92
45323;BME280;31382;50.200;8.674;2024-01-16T10:54:59;99789.03;;;3.62;61.91
45323;BME280;31382;50.200;8.674;2024-01-16T11:00:07;99795.31;;;3.61;62.00
45323;BME280;31382;50.200;8.674;2024-01-16T11:05:11;99780.13;;;3.81;61.55
45323;BME280;31382;50.200;8.674;2024-01-16T11:10:14;99777.16;;;3.93;61.54
45323;BME280;31382;50.200;8.674;2024-01-16T11:15:17;99770.28;;;3.91;61.50
45323;BME280;31382;50.200;8.674;2024-01-16T11:20:20;99762.16;;;3.92;61.46
45323;BME280;31382;50.200;8.674;2024-01-16T11:25:32;99764.13;;;4.18;60.79
45323;BME280;31382;50.200;8.674;2024-01-16T11:30:34;99747.19;;;4.19;60.67
45323;BME280;31382;50.200;8.674;2024-01-16T11:35:37;99732.69;;;4.31;60.29
45323;BME280;31382;50.200;8.674;2024-01-16T11:40:40;99721.16;;;4.41;60.50
45323;BME280;31382;50.200;8.674;2024-01-16T11:45:48;99717.47;;;4.42;60.17
45323;BME280;31382;50.200;8.674;2024-01-16T11:50:51;99706.91;;;4.50;59.91
45323;BME280;31382;50.200;8.674;2024-01-16T12:01:45;99689.94;;;4.69;59.87
45323;BME280;31382;50.200;8.674;2024-01-16T12:06:59;99690.44;;;4.90;59.34
45323;BME280;31382;50.200;8.674;2024-01-16T12:12:02;99675.44;;;4.89;59.19
45323;BME280;31382;50.200;8.674;2024-01-16T12:17:08;99671.84;;;4.99;58.95
45323;BME280;31382;50.200;8.674;2024-01-16T12:22:13;99675.94;;;5.19;58.75
45323;BME280;31382;50.200;8.674;2024-01-16T12:27:15;99656.38;;;5.28;58.21
45323;BME280;31382;50.200;8.674;2024-01-16T12:32:17;99660.66;;;5.21;57.95
45323;BME280;31382;50.200;8.674;2024-01-16T12:37:19;99667.50;;;5.24;57.61
45323;BME280;31382;50.200;8.674;2024-01-16T12:42:21;99654.72;;;5.27;57.81
45323;BME280;31382;50.200;8.674;2024-01-16T12:47:26;99658.09;;;5.46;57.43
45323;BME280;31382;50.200;8.674;2024-01-16T12:52:28;99642.91;;;5.38;57.42
45323;BME280;31382;50.200;8.674;2024-01-16T12:57:31;99640.63;;;5.17;57.23
45323;BME280;31382;50.200;8.674;2024-01-16T13:02:33;99634.28;;;5.10;57.39
45323;BME280;31382;50.200;8.674;2024-01-16T13:07:35;99636.53;;;4.96;57.86
45323;BME280;31382;50.200;8.674;2024-01-16T13:12:37;99635.94;;;4.76;58.09
45323;BME280;31382;50.200;8.674;2024-01-16T13:17:39;99623.44;;;4.77;57.23
45323;BME280;31382;50.200;8.674;2024-01-16T13:22:40;99625.19;;;4.60;57.81
45323;BME280;31382;50.200;8.674;2024-01-16T13:27:48;99624.94;;;4.53;57.84
45323;BME280;31382;50.200;8.674;2024-01-16T13:32:49;99622.84;;;4.39;57.76
45323;BME280;31382;50.200;8.674;2024-01-16T13:37:51;99619.25;;;4.48;57.58
45323;BME280;31382;50.200;8.674;2024-01-16T13:42:52;99618.56;;;4.46;57.02
45323;BME280;31382;50.200;8.674;2024-01-16T13:47:55;99603.06;;;4.42;57.05
45323;BME280;31382;50.200;8.674;2024-01-16T13:52:56;99594.72;;;4.36;57.13
45323;BME280;31382;50.200;8.674;2024-01-16T13:57:58;99602.94;;;4.25;57.71
45323;BME280;31382;50.200;8.674;2024-01-16T14:02:59;99602.13;;;4.25;57.45
45323;BME280;31382;50.200;8.674;2024-01-16T14:08:02;99601.03;;;4.17;57.74
45323;BME280;31382;50.200;8.674;2024-01-16T14:13:04;99597.31;;;4.10;57.77
45323;BME280;31382;50.200;8.674;2024-01-16T14:18:06;99613.59;;;4.07;57.63
45323;BME280;31382;50.200;8.674;2024-01-16T14:23:07;99607.88;;;4.02;57.80
45323;BME280;31382;50.200;8.674;2024-01-16T14:28:08;99609.56;;;4.03;57.80
45323;BME280;31382;50.200;8.674;2024-01-16T14:33:23;99609.72;;;4.02;57.38
45323;BME280;31382;50.200;8.674;2024-01-16T14:38:25;99619.06;;;4.06;57.59
45323;BME280;31382;50.200;8.674;2024-01-16T14:43:26;99627.88;;;4.06;57.71
45323;BME280;31382;50.200;8.674;2024-01-16T14:48:28;99619.06;;;4.06;57.58
45323;BME280;31382;50.200;8.674;2024-01-16T14:53:29;99619.06;;;4.06;57.61
45323;BME280;31382;50.200;8.674;2024-01-16T14:58:33;99603.41;;;4.03;57.18
45323;BME280;31382;50.200;8.674;2024-01-16T15:03:34;99602.63;;;4.10;56.86
45323;BME280;31382;50.200;8.674;2024-01-16T15:08:36;99599.53;;;4.15;56.89
45323;BME280;31382;50.200;8.674;2024-01-16T15:13:37;99601.94;;;4.26;56.52
45323;BME280;31382;50.200;8.674;2024-01-16T15:18:38;99593.66;;;4.29;57.12
45323;BME280;31382;50.200;8.674;2024-01-16T15:23:40;99586.69;;;4.10;56.95
45323;BME280;31382;50.200;8.674;2024-01-16T15:28:42;99589.97;;;4.04;57.04
45323;BME280;31382;50.200;8.674;2024-01-16T15:33:46;99582.19;;;3.93;57.17
45323;BME280;31382;50.200;8.674;2024-01-16T15:38:48;99596.09;;;3.87;57.39
45323;BME280;31382;50.200;8.674;2024-01-16T15:43:50;99595.66;;;3.73;57.76
45323;BME280;31382;50.200;8.674;2024-01-16T15:48:51;99597.53;;;3.63;57.38
45323;BME280;31382;50.200;8.674;2024-01-16T15:53:53;99598.34;;;3.46;57.54
45323;BME280;31382;50.200;8.674;2024-01-16T15:58:54;99602.88;;;3.35;57.62
45323;BME280;31382;50.200;8.674;2024-01-16T16:03:56;99607.16;;;3.18;57.82
45323;BME280;31382;50.200;8.674;2024-01-16T16:08:57;99603.53;;;3.10;57.56
45323;BME280;31382;50.200;8.674;2024-01-16T16:13:59;99610.03;;;2.97;57.60
45323;BME280;31382;50.200;8.674;2024-01-16T16:19:00;99601.84;;;2.81;57.96
45323;BME280;31382;50.200;8.674;2024-01-16T16:24:02;99602.44;;;2.75;58.37
45323;BME280;31382;50.200;8.674;2024-01-16T16:29:06;99599.66;;;2.67;58.40
45323;BME280;31382;50.200;8.674;2024-01-16T16:34:09;99590.59;;;2.60;58.37
45323;BME280;31382;50.200;8.674;2024-01-16T16:39:13;99585.75;;;2.45;58.11
45323;BME280;31382;50.200;8.674;2024-01-16T16:44:17;99609.50;;;2.27;58.68
45323;BME280;31382;50.200;8.674;2024-01-16T16:49:19;99631.56;;;2.18;59.17
45323;BME280;31382;50.200;8.674;2024-01-16T16:54:20;99629.72;;;2.09;59.24
45323;BME280;31382;50.200;8.674;2024-01-16T16:59:22;99630.28;;;2.03;58.81
45323;BME280;31382;50.200;8.674;2024-01-16T17:04:24;99626.25;;;1.98;58.80
45323;BME280;31382;50.200;8.674;2024-01-16T17:09:26;99636.28;;;1.95;58.94
45323;BME280;31382;50.200;8.674;2024-01-16T17:14:27;99623.59;;;1.98;59.02
45323;BME280;31382;50.200;8.674;2024-01-16T17:19:28;99621.09;;;2.07;59.30
45323;BME280;31382;50.200;8.674;2024-01-16T17:24:30;99618.56;;;2.05;59.20
45323;BME280;31382;50.200;8.674;2024-01-16T17:29:31;99621.50;;;2.12;59.54
45323;BME280;31382;50.200;8.674;2024-01-16T17:34:33;99617.59;;;2.06;59.23
45323;BME280;31382;50.200;8.674;2024-01-16T17:39:35;99613.44;;;2.04;59.56
45323;BME280;31382;50.200;8.674;2024-01-16T17:44:49;99599.19;;;1.95;59.62
45323;BME280;31382;50.200;8.674;2024-01-16T17:49:51;99604.59;;;1.84;59.63
45323;BME280;31382;50.200;8.674;2024-01-16T17:54:52;99602.09;;;1.72;59.43
45323;BME280;31382;50.200;8.674;2024-01-16T17:59:54;99603.75;;;1.64;59.94
45323;BME280;31382;50.200;8.674;2024-01-16T18:04:55;99597.06;;;1.59;59.75
45323;BME280;31382;50.200;8.674;2024-01-16T18:09:57;99596.06;;;1.51;59.52
45323;BME280;31382;50.200;8.674;2024-01-16T18:15:00;99595.50;;;1.47;60.30
45323;BME280;31382;50.200;8.674;2024-01-16T18:20:02;99580.28;;;1.39;59.93
45323;BME280;31382;50.200;8.674;2024-01-16T18:25:07;99586.97;;;1.34;60.20
45323;BME280;31382;50.200;8.674;2024-01-16T18:30:11;99580.41;;;1.28;59.72
45323;BME280;31382;50.200;8.674;2024-01-16T18:35:17;99566.19;;;1.19;60.12
45323;BME280;31382;50.200;8.674;2024-01-16T18:40:18;99558.09;;;1.11;59.85
45323;BME280;31382;50.200;8.674;2024-01-16T18:45:21;99553.59;;;1.02;60.43
45323;BME280;31382;50.200;8.674;2024-01-16T18:50:23;99536.59;;;0.95;60.37
45323;BME280;31382;50.200;8.674;2024-01-16T18:55:26;99534.34;;;0.90;59.82
45323;BME280;31382;50.200;8.674;2024-01-16T19:00:28;99524.56;;;0.81;60.68
45323;BME280;31382;50.200;8.674;2024-01-16T19:05:29;99532.19;;;0.74;60.87
45323;BME280;31382;50.200;8.674;2024-01-16T19:10:31;99527.19;;;0.71;60.18
45323;BME280;31382;50.200;8.674;2024-01-16T19:15:33;99528.78;;;0.63;61.08
45323;BME280;31382;50.200;8.674;2024-01-16T19:20:35;99519.88;;;0.54;60.39
45323;BME280;31382;50.200;8.674;2024-01-16T19:25:36;99512.72;;;0.45;60.31
45323;BME280;31382;50.200;8.674;2024-01-16T19:30:38;99508.09;;;0.37;61.21
45323;BME280;31382;50.200;8.674;2024-01-16T19:35:40;99512.38;;;0.28;60.98
45323;BME280;31382;50.200;8.674;2024-01-16T19:40:41;99508.44;;;0.23;60.98
45323;BME280;31382;50.200;8.674;2024-01-16T19:45:43;99513.25;;;0.17;60.67
45323;BME280;31382;50.200;8.674;2024-01-16T19:50:48;99514.06;;;0.08;61.81
45323;BME280;31382;50.200;8.674;2024-01-16T19:55:50;99496.78;;;0.04;61.35
45323;BME280;31382;50.200;8.674;2024-01-16T20:00:52;99485.06;;;-0.03;61.22
45323;BME280;31382;50.200;8.674;2024-01-16T20:05:53;99481.00;;;-0.07;61.79
45323;BME280;31382;50.200;8.674;2024-01-16T20:10:55;99477.06;;;-0.13;61.71
45323;BME280;31382;50.200;8.674;2024-01-16T20:15:58;99479.53;;;-0.21;62.33
45323;BME280;31382;50.200;8.674;2024-01-16T20:21:02;99481.97;;;-0.29;62.63
45323;BME280;31382;50.200;8.674;2024-01-16T20:26:05;99469.13;;;-0.34;62.32
45323;BME280;31382;50.200;8.674;2024-01-16T20:31:06;99463.16;;;-0.36;61.96
45323;BME280;31382;50.200;8.674;2024-01-16T20:36:08;99455.63;;;-0.41;61.73
45323;BME280;31382;50.200;8.674;2024-01-16T20:41:11;99463.94;;;-0.45;61.90
45323;BME280;31382;50.200;8.674;2024-01-16T20:46:12;99466.50;;;-0.55;62.04
45323;BME280;31382;50.200;8.674;2024-01-16T20:51:15;99470.97;;;-0.67;62.40
45323;BME280;31382;50.200;8.674;2024-01-16T20:56:17;99457.66;;;-0.65;63.14
45323;BME280;31382;50.200;8.674;2024-01-16T21:01:19;99460.88;;;-0.62;62.89
45323;BME280;31382;50.200;8.674;2024-01-16T21:06:21;99456.09;;;-0.68;63.07
45323;BME280;31382;50.200;8.674;2024-01-16T21:11:22;99458.41;;;-0.74;62.81
45323;BME280;31382;50.200;8.674;2024-01-16T21:16:24;99447.66;;;-0.83;63.47
45323;BME280;31382;50.200;8.674;2024-01-16T21:21:25;99442.22;;;-0.81;63.31
45323;BME280;31382;50.200;8.674;2024-01-16T21:26:27;99443.22;;;-0.82;62.91
45323;BME280;31382;50.200;8.674;2024-01-16T21:31:29;99439.78;;;-0.94;63.16
45323;BME280;31382;50.200;8.674;2024-01-16T21:36:31;99433.66;;;-0.94;63.16
45323;BME280;31382;50.200;8.674;2024-01-16T21:41:33;99427.91;;;-1.00;63.51
45323;BME280;31382;50.200;8.674;2024-01-16T21:46:38;99415.13;;;-1.04;63.17
45323;BME280;31382;50.200;8.674;2024-01-16T21:51:41;99402.28;;;-1.09;63.07
45323;BME280;31382;50.200;8.674;2024-01-16T21:56:45;99396.69;;;-1.15;63.13
45323;BME280;31382;50.200;8.674;2024-01-16T22:01:46;99397.31;;;-1.23;63.26
45323;BME280;31382;50.200;8.674;2024-01-16T22:06:48;99393.53;;;-1.42;63.88
45323;BME280;31382;50.200;8.674;2024-01-16T22:11:49;99389.59;;;-1.47;64.16
45323;BME280;31382;50.200;8.674;2024-01-16T22:16:51;99386.84;;;-1.46;63.84
45323;BME280;31382;50.200;8.674;2024-01-16T22:21:53;99384.44;;;-1.49;63.49
45323;BME280;31382;50.200;8.674;2024-01-16T22:26:54;99384.97;;;-1.77;64.57
45323;BME280;31382;50.200;8.674;2024-01-16T22:31:56;99368.78;;;-1.73;64.55
45323;BME280;31382;50.200;8.674;2024-01-16T22:36:58;99370.00;;;-1.77;64.19
45323;BME280;31382;50.200;8.674;2024-01-16T22:42:01;99356.81;;;-1.88;64.81
45323;BME280;31382;50.200;8.674;2024-01-16T22:47:03;99353.09;;;-1.86;64.42
45323;BME280;31382;50.200;8.674;2024-01-16T22:52:05;99352.53;;;-1.89;64.58
45323;BME280;31382;50.200;8.674;2024-01-16T22:57:06;99354.69;;;-1.94;64.85
45323;BME280;31382;50.200;8.674;2024-01-16T23:02:08;99346.06;;;-2.08;64.66
45323;BME280;31382;50.200;8.674;2024-01-16T23:07:09;99339.75;;;-2.05;64.90
45323;BME280;31382;50.200;8.674;2024-01-16T23:12:11;99327.78;;;-2.09;64.87
45323;BME280;31382;50.200;8.674;2024-01-16T23:17:13;99307.06;;;-2.14;65.16
45323;BME280;31382;50.200;8.674;2024-01-16T23:22:14;99299.16;;;-2.03;65.00
45323;BME280;31382;50.200;8.674;2024-01-16T23:27:16;99300.59;;;-1.98;64.44
45323;BME280;31382;50.200;8.674;2024-01-16T23:32:17;99281.44;;;-2.01;64.54
45323;BME280;31382;50.200;8.674;2024-01-16T23:37:19;99266.72;;;-2.03;64.38
45323;BME280;31382;50.200;8.674;2024-01-16T23:42:25;99241.22;;;-2.03;64.64
45323;BME280;31382;50.200;8.674;2024-01-16T23:47:27;99246.63;;;-2.04;64.83
45323;BME280;31382;50.200;8.674;2024-01-16T23:52:29;99235.84;;;-2.01;64.38
45323;BME280;31382;50.200;8.674;2024-01-16T23:57:30;99234.03;;;-2.01;64.41
